Time;durP1;ratioP1;P1;durP2;ratioP2;P2;SDS_P1;SDS_P2;PMS_P1;PMS_P2;Temp;Humidity;BMP_temperature;BMP_pressure;BME280_temperature;BME280_humidity;BME280_pressure;Samples;Min_cycle;Max_cycle;Signal;HPM_P1;HPM_P2
2022/04/12 00:00:22;;;;;;;13.67;9.90;;;8.70;69.10;;;;;;5021428;28;20735;-73
2022/04/12 00:02:50;;;;;;;16.00;9.40;;;8.70;69.10;;;;;;5016427;28;20460;-72
2022/04/12 00:05:18;;;;;;;15.03;9.60;;;8.60;69.10;;;;;;5019912;28;20978;-73
2022/04/12 00:07:58;;;;;;;14.07;8.53;;;8.60;69.20;;;;;;5020521;28;20482;-73
2022/04/12 00:10:27;;;;;;;13.27;9.87;;;8.60;69.20;;;;;;5016478;28;20566;-72
2022/04/12 00:12:56;;;;;;;15.07;8.80;;;8.60;69.20;;;;;;5019042;28;20476;-73
2022/04/12 00:15:24;;;;;;;13.30;8.50;;;8.60;69.20;;;;;;5016047;28;21243;-72
2022/04/12 00:20:39;;;;;;;15.43;9.85;;;8.60;69.20;;;;;;5015715;28;20488;-71
2022/04/12 00:23:07;;;;;;;12.85;8.68;;;8.50;69.20;;;;;;5021563;28;20872;-70
2022/04/12 00:25:36;;;;;;;15.80;9.60;;;8.50;69.30;;;;;;5020305;28;20209;-70
2022/04/12 00:28:05;;;;;;;14.67;9.03;;;8.50;69.30;;;;;;5015273;28;20465;-72
2022/04/12 00:30:33;;;;;;;13.27;8.70;;;8.50;69.40;;;;;;5016454;28;20468;-74
2022/04/12 00:33:01;;;;;;;13.60;9.00;;;8.50;69.40;;;;;;5019130;28;20456;-71
2022/04/12 00:35:29;;;;;;;12.67;8.67;;;8.50;69.40;;;;;;5019409;28;20460;-73
2022/04/12 00:37:57;;;;;;;19.20;11.50;;;8.50;69.30;;;;;;5019938;28;20993;-74
2022/04/12 00:40:26;;;;;;;22.20;13.55;;;8.50;69.40;;;;;;5018128;28;20521;-74
2022/04/12 00:42:55;;;;;;;21.65;13.23;;;8.50;69.50;;;;;;5016731;28;20249;-73
2022/04/12 00:45:23;;;;;;;21.40;12.90;;;8.50;69.50;;;;;;5017006;28;20225;-73
2022/04/12 00:47:51;;;;;;;19.40;12.43;;;8.50;69.50;;;;;;5018012;28;20464;-74
2022/04/12 00:50:19;;;;;;;18.60;11.10;;;8.50;69.50;;;;;;5019244;28;20467;-72
2022/04/12 00:52:50;;;;;;;17.47;10.97;;;8.50;69.50;;;;;;5018993;28;20495;-74
2022/04/12 00:55:19;;;;;;;19.93;13.10;;;8.50;69.40;;;;;;5017717;28;20510;-74
2022/04/12 00:57:54;;;;;;;18.77;12.33;;;8.40;69.40;;;;;;5012622;28;20463;-72
2022/04/12 01:00:24;;;;;;;22.83;13.45;;;8.30;69.40;;;;;;5023185;28;20499;-70
2022/04/12 01:02:51;;;;;;;22.20;12.37;;;8.30;69.40;;;;;;5021571;28;20855;-74
2022/04/12 01:05:20;;;;;;;23.07;14.13;;;8.20;69.40;;;;;;5025647;28;21061;-73
2022/04/12 01:07:48;;;;;;;28.35;16.95;;;8.20;69.60;;;;;;5022938;28;21099;-70
2022/04/12 01:10:16;;;;;;;25.50;14.73;;;8.10;69.70;;;;;;5018883;28;20887;-74
2022/04/12 01:12:46;;;;;;;22.38;14.65;;;8.20;69.80;;;;;;5017019;28;20448;-74
2022/04/12 01:15:18;;;;;;;22.30;12.00;;;8.20;69.80;;;;;;5018676;28;20716;-72
2022/04/12 01:17:48;;;;;;;20.00;13.50;;;8.30;69.80;;;;;;5016390;28;20471;-72
2022/04/12 01:20:19;;;;;;;19.30;12.15;;;8.30;69.80;;;;;;5020038;28;20480;-73
2022/04/12 01:22:53;;;;;;;17.88;12.38;;;8.30;69.80;;;;;;5021779;28;20451;-72
2022/04/12 01:25:23;;;;;;;19.92;11.63;;;8.30;69.80;;;;;;5021360;28;20194;-74
2022/04/12 01:27:51;;;;;;;18.63;12.32;;;8.30;69.80;;;;;;5022291;28;20211;-74
2022/04/12 01:30:19;;;;;;;17.20;11.65;;;8.20;69.50;;;;;;5021715;28;20748;-74
2022/04/12 01:32:47;;;;;;;17.23;11.80;;;8.10;69.50;;;;;;5019101;28;20673;-74
2022/04/12 01:35:15;;;;;;;17.42;11.52;;;8.10;69.50;;;;;;5017052;28;20198;-72
2022/04/12 01:37:43;;;;;;;17.13;11.50;;;8.00;69.50;;;;;;5014598;28;20740;-72
2022/04/12 01:40:11;;;;;;;17.00;11.40;;;7.90;69.50;;;;;;5017124;28;20947;-71
2022/04/12 01:42:41;;;;;;;19.58;13.07;;;7.90;69.60;;;;;;5012732;28;20484;-74
2022/04/12 01:45:10;;;;;;;16.65;11.55;;;7.80;69.70;;;;;;5016635;28;20971;-72
2022/04/12 01:47:38;;;;;;;14.95;11.15;;;7.80;69.90;;;;;;5020896;28;20210;-71
2022/04/12 01:50:07;;;;;;;19.93;10.80;;;7.80;70.00;;;;;;5020803;28;20213;-71
2022/04/12 01:52:36;;;;;;;18.60;11.50;;;7.80;70.10;;;;;;5020224;28;20462;-72
2022/04/12 01:55:04;;;;;;;18.05;11.35;;;7.90;70.10;;;;;;5023211;28;20283;-72
2022/04/12 01:57:32;;;;;;;17.05;11.60;;;7.90;70.10;;;;;;5014604;28;20197;-70
2022/04/12 02:00:02;;;;;;;16.60;10.00;;;7.90;70.10;;;;;;5017820;28;20197;-71
2022/04/12 02:02:39;;;;;;;15.68;9.73;;;7.90;70.00;;;;;;5017206;28;20235;-70
2022/04/12 02:05:07;;;;;;;18.07;10.43;;;7.90;69.90;;;;;;5015637;28;20205;-72
2022/04/12 02:07:35;;;;;;;13.32;8.60;;;7.80;69.90;;;;;;5019316;28;20468;-74
2022/04/12 02:10:04;;;;;;;14.50;10.75;;;7.80;69.90;;;;;;5022328;28;20189;-73
2022/04/12 02:12:33;;;;;;;15.85;9.68;;;7.70;69.90;;;;;;5037693;28;20202;-74
2022/04/12 02:15:03;;;;;;;14.07;9.82;;;7.70;70.00;;;;;;5027791;28;20190;-74
2022/04/12 02:17:31;;;;;;;15.05;9.50;;;7.70;70.10;;;;;;5019399;28;20222;-72
2022/04/12 02:19:59;;;;;;;15.45;9.98;;;7.70;70.10;;;;;;5024139;28;20213;-73
2022/04/12 02:22:27;;;;;;;15.50;10.80;;;7.70;70.10;;;;;;5021573;28;20315;-73
2022/04/12 02:24:55;;;;;;;16.98;10.40;;;7.70;70.20;;;;;;5025103;28;20245;-73
2022/04/12 02:27:23;;;;;;;14.50;10.18;;;7.60;70.20;;;;;;5026435;28;20201;-74
2022/04/12 02:29:51;;;;;;;15.88;10.60;;;7.60;70.20;;;;;;5020438;28;20683;-72
2022/04/12 02:32:20;;;;;;;15.82;10.77;;;7.60;70.20;;;;;;5023823;28;20849;-72
2022/04/12 02:34:48;;;;;;;16.48;11.13;;;7.50;70.10;;;;;;5024982;28;20604;-73
2022/04/12 02:37:16;;;;;;;18.20;11.30;;;7.40;70.10;;;;;;5027840;28;20231;-73
2022/04/12 02:39:44;;;;;;;14.13;10.50;;;7.40;70.20;;;;;;5026214;28;20230;-73
2022/04/12 02:42:12;;;;;;;17.35;10.60;;;7.40;70.30;;;;;;5021117;28;20226;-73
2022/04/12 02:44:40;;;;;;;17.63;10.80;;;7.40;70.40;;;;;;5022258;28;20256;-73
2022/04/12 02:47:08;;;;;;;21.15;11.70;;;7.30;70.40;;;;;;5021532;28;20239;-74
2022/04/12 02:49:37;;;;;;;18.40;11.63;;;7.30;70.30;;;;;;5019534;28;20204;-74
2022/04/12 02:52:08;;;;;;;18.25;11.75;;;7.20;70.40;;;;;;5017498;28;20268;-74
2022/04/12 02:54:36;;;;;;;14.75;10.80;;;7.20;70.50;;;;;;5020557;28;20208;-72
2022/04/12 02:57:05;;;;;;;15.55;10.85;;;7.20;70.60;;;;;;5015742;28;20265;-72
2022/04/12 02:59:32;;;;;;;18.33;11.85;;;7.10;70.70;;;;;;5018019;28;20300;-74
2022/04/12 03:02:00;;;;;;;17.02;10.18;;;7.10;70.70;;;;;;5020362;28;20236;-72
2022/04/12 03:04:29;;;;;;;14.80;9.68;;;7.10;70.80;;;;;;5016711;28;20197;-74
2022/04/12 03:06:59;;;;;;;14.50;9.15;;;7.20;70.90;;;;;;5022541;28;20236;-72
2022/04/12 03:09:26;;;;;;;17.33;10.10;;;7.20;71.00;;;;;;5020965;28;20731;-73
2022/04/12 03:11:54;;;;;;;16.23;11.20;;;7.30;71.00;;;;;;5017689;28;20229;-72
2022/04/12 03:14:22;;;;;;;17.02;10.60;;;7.30;71.00;;;;;;5017940;28;20865;-71
2022/04/12 03:16:50;;;;;;;17.65;10.75;;;7.40;70.90;;;;;;5019648;28;20925;-74
2022/04/12 03:19:18;;;;;;;13.32;9.60;;;7.40;70.80;;;;;;5017737;28;20289;-72
2022/04/12 03:21:46;;;;;;;13.70;9.18;;;7.40;70.80;;;;;;5017357;28;20587;-72
2022/04/12 03:24:16;;;;;;;14.85;9.95;;;7.40;70.80;;;;;;5017972;28;20226;-74
2022/04/12 03:26:44;;;;;;;15.60;10.35;;;7.30;70.80;;;;;;5037495;28;20240;-74
2022/04/12 03:29:12;;;;;;;14.23;10.20;;;7.30;70.70;;;;;;5018202;28;20203;-70
2022/04/12 03:31:40;;;;;;;14.80;10.80;;;7.30;70.70;;;;;;5015759;28;20241;-72
2022/04/12 03:34:08;;;;;;;16.85;9.90;;;7.30;70.60;;;;;;5018250;28;20209;-71
2022/04/12 03:36:38;;;;;;;19.63;9.77;;;7.20;70.80;;;;;;5018997;28;20206;-72
2022/04/12 03:39:10;;;;;;;15.65;10.23;;;7.20;70.80;;;;;;5021597;28;20232;-70
2022/04/12 03:41:39;;;;;;;15.75;10.45;;;7.20;70.90;;;;;;5024029;28;20217;-75
2022/04/12 03:44:07;;;;;;;14.32;10.07;;;7.10;70.90;;;;;;5023391;28;20214;-71
2022/04/12 03:46:35;;;;;;;15.70;11.15;;;7.10;71.00;;;;;;5022913;28;20243;-73
2022/04/12 03:49:04;;;;;;;20.83;12.10;;;7.10;71.10;;;;;;5021349;28;20240;-74
2022/04/12 03:51:31;;;;;;;18.55;10.93;;;7.20;71.10;;;;;;5018450;28;20867;-72
2022/04/12 03:53:59;;;;;;;13.10;9.55;;;7.20;71.10;;;;;;5021961;28;20221;-72
2022/04/12 03:56:28;;;;;;;17.50;10.48;;;7.20;71.10;;;;;;5022424;28;20205;-74
2022/04/12 03:58:58;;;;;;;17.00;10.10;;;7.20;71.10;;;;;;5020973;28;20788;-71
2022/04/12 04:01:28;;;;;;;16.63;10.80;;;7.20;71.10;;;;;;5017663;28;20233;-72
2022/04/12 04:03:58;;;;;;;16.77;10.82;;;7.10;71.00;;;;;;5016644;28;20213;-71
2022/04/12 04:06:26;;;;;;;14.35;10.23;;;7.10;70.90;;;;;;5019656;28;20224;-72
2022/04/12 04:08:54;;;;;;;17.40;10.02;;;7.00;71.00;;;;;;5017779;28;20282;-71
2022/04/12 04:11:22;;;;;;;18.88;11.38;;;7.00;71.10;;;;;;5017291;28;20284;-72
2022/04/12 04:13:50;;;;;;;16.60;10.88;;;7.00;71.30;;;;;;5011665;28;20209;-73
2022/04/12 04:16:19;;;;;;;15.25;11.18;;;7.00;71.40;;;;;;5012830;28;20233;-72
2022/04/12 04:18:47;;;;;;;16.40;10.95;;;7.10;71.50;;;;;;5013818;28;20235;-74
2022/04/12 04:21:16;;;;;;;18.63;11.77;;;7.10;71.50;;;;;;5016840;28;20236;-73
2022/04/12 04:23:45;;;;;;;18.25;10.48;;;7.10;71.40;;;;;;5014320;28;20206;-74
2022/04/12 04:26:13;;;;;;;19.70;11.45;;;7.20;71.40;;;;;;5014534;28;20197;-72
2022/04/12 04:28:44;;;;;;;16.27;11.05;;;7.10;71.20;;;;;;5012328;28;20206;-73
2022/04/12 04:31:12;;;;;;;17.88;11.70;;;7.10;71.30;;;;;;5017274;28;20453;-74
2022/04/12 04:33:42;;;;;;;17.83;11.18;;;7.10;71.40;;;;;;5013136;28;20205;-74
2022/04/12 04:36:10;;;;;;;15.75;11.05;;;7.20;71.50;;;;;;5014335;28;20644;-73
2022/04/12 04:38:38;;;;;;;17.90;12.00;;;7.20;71.40;;;;;;5018112;28;20210;-73
2022/04/12 04:41:06;;;;;;;16.80;11.38;;;7.20;71.50;;;;;;5016990;28;20224;-74
2022/04/12 04:43:36;;;;;;;19.58;12.00;;;7.20;71.50;;;;;;5012789;28;20213;-73
2022/04/12 04:46:05;;;;;;;16.80;11.50;;;7.20;71.50;;;;;;5011510;28;20240;-72
2022/04/12 04:48:33;;;;;;;15.13;10.82;;;7.20;71.50;;;;;;5013049;28;20197;-73
2022/04/12 04:51:02;;;;;;;17.70;12.55;;;7.30;71.50;;;;;;5013384;28;20232;-72
2022/04/12 04:53:30;;;;;;;18.35;12.77;;;7.30;71.50;;;;;;5014732;28;20199;-72
2022/04/12 04:55:58;;;;;;;17.02;13.30;;;7.30;71.20;;;;;;5011450;28;20206;-74
2022/04/12 04:58:26;;;;;;;26.00;16.75;;;7.20;71.30;;;;;;5012091;28;20233;-73
2022/04/12 05:00:54;;;;;;;29.13;18.80;;;7.20;71.40;;;;;;5015421;28;20237;-73
2022/04/12 05:03:22;;;;;;;32.60;19.77;;;7.20;71.50;;;;;;5015846;28;20289;-73
2022/04/12 05:05:50;;;;;;;32.67;18.10;;;7.20;71.70;;;;;;5012910;28;20579;-73
2022/04/12 05:08:19;;;;;;;30.23;18.40;;;7.30;71.90;;;;;;5013811;28;20206;-73
2022/04/12 05:10:47;;;;;;;27.70;18.98;;;7.40;72.10;;;;;;5012752;28;20349;-74
2022/04/12 05:13:15;;;;;;;22.35;15.40;;;7.60;72.30;;;;;;5012983;28;20198;-74
2022/04/12 05:15:44;;;;;;;26.80;15.15;;;7.80;72.20;;;;;;5019020;28;20396;-73
2022/04/12 05:18:12;;;;;;;21.00;14.90;;;7.90;71.90;;;;;;5019168;28;20198;-73
2022/04/12 05:20:39;;;;;;;22.77;13.93;;;8.00;71.50;;;;;;5013993;28;20222;-74
2022/04/12 05:23:12;;;;;;;19.13;13.30;;;7.90;71.10;;;;;;5020548;28;20462;-73
2022/04/12 05:25:41;;;;;;;22.00;13.85;;;7.80;71.00;;;;;;5019762;28;20590;-75
2022/04/12 05:28:09;;;;;;;21.83;13.40;;;7.70;71.10;;;;;;5018734;28;20288;-73
2022/04/12 05:30:37;;;;;;;20.85;14.00;;;7.70;71.20;;;;;;5019643;28;20237;-74
2022/04/12 05:33:05;;;;;;;19.25;13.05;;;7.70;71.40;;;;;;5018590;28;20327;-74
2022/04/12 05:35:33;;;;;;;22.90;13.80;;;7.70;71.50;;;;;;5019577;28;20201;-73
2022/04/12 05:38:01;;;;;;;24.13;13.60;;;7.80;71.60;;;;;;5014384;28;20216;-71
2022/04/12 05:40:30;;;;;;;20.80;14.00;;;7.90;71.70;;;;;;5016313;28;20233;-71
2022/04/12 05:42:59;;;;;;;18.67;13.37;;;7.90;71.80;;;;;;5016424;28;20201;-72
2022/04/12 05:45:30;;;;;;;23.50;13.43;;;8.00;71.80;;;;;;5014874;28;20479;-72
2022/04/12 05:47:58;;;;;;;23.13;13.88;;;8.10;71.80;;;;;;5021596;28;20459;-73
2022/04/12 05:50:27;;;;;;;18.73;12.43;;;8.10;71.70;;;;;;5014574;28;20221;-72
2022/04/12 05:52:56;;;;;;;19.08;13.35;;;8.10;71.50;;;;;;5014534;28;20205;-72
2022/04/12 05:55:26;;;;;;;23.33;14.75;;;8.10;71.50;;;;;;5017704;28;20619;-73
2022/04/12 05:57:56;;;;;;;27.35;14.25;;;8.10;71.50;;;;;;5014833;28;20189;-72
2022/04/12 06:00:26;;;;;;;21.10;13.45;;;8.10;71.50;;;;;;5019065;28;20650;-72
2022/04/12 06:02:56;;;;;;;21.15;13.55;;;8.10;71.50;;;;;;5021998;28;20714;-73
2022/04/12 06:05:28;;;;;;;19.33;12.30;;;8.10;71.60;;;;;;5019861;28;20233;-71
2022/04/12 06:07:56;;;;;;;19.83;12.57;;;8.10;71.50;;;;;;5020059;28;20205;-73
2022/04/12 06:10:24;;;;;;;22.65;13.50;;;8.20;71.60;;;;;;5022747;28;20582;-73
2022/04/12 06:12:58;;;;;;;22.30;13.77;;;8.20;71.50;;;;;;5013249;28;20224;-71
2022/04/12 06:15:28;;;;;;;20.93;13.70;;;8.20;71.50;;;;;;5011012;28;20264;-72
2022/04/12 06:17:56;;;;;;;22.43;14.50;;;8.20;71.60;;;;;;5019007;28;20444;-73
2022/04/12 06:20:24;;;;;;;19.50;12.80;;;8.20;71.60;;;;;;5018434;28;20809;-72
2022/04/12 06:22:52;;;;;;;22.53;15.00;;;8.30;71.70;;;;;;5022465;28;20474;-72
2022/04/12 06:25:20;;;;;;;21.63;14.00;;;8.30;71.70;;;;;;5018736;28;20482;-73
2022/04/12 06:27:51;;;;;;;21.48;14.02;;;8.40;71.80;;;;;;5020707;28;20522;-72
2022/04/12 06:30:22;;;;;;;22.47;13.47;;;8.40;71.80;;;;;;5020032;28;20645;-72
2022/04/12 06:32:52;;;;;;;20.30;12.80;;;8.50;71.80;;;;;;5017662;28;20452;-72
2022/04/12 06:35:20;;;;;;;19.50;13.50;;;8.50;71.80;;;;;;5014967;28;20466;-73
2022/04/12 06:37:52;;;;;;;21.23;14.80;;;8.50;71.90;;;;;;5016312;28;20499;-75
2022/04/12 06:40:21;;;;;;;22.00;15.03;;;8.60;71.90;;;;;;5010133;28;20487;-73
2022/04/12 06:42:50;;;;;;;23.10;13.27;;;8.60;71.80;;;;;;5017157;28;21211;-73
2022/04/12 06:45:18;;;;;;;22.63;14.90;;;8.70;71.70;;;;;;5016229;28;20483;-74
2022/04/12 06:47:55;;;;;;;22.17;14.27;;;8.70;71.60;;;;;;5015737;28;20465;-74
2022/04/12 06:50:24;;;;;;;19.13;13.73;;;8.60;71.60;;;;;;5023248;28;20467;-74
2022/04/12 06:52:52;;;;;;;20.00;12.40;;;8.70;71.70;;;;;;5018836;28;20447;-73
2022/04/12 06:55:21;;;;;;;25.00;14.40;;;8.70;71.60;;;;;;5016908;28;20469;-72
2022/04/12 06:57:49;;;;;;;23.90;13.83;;;8.70;71.70;;;;;;5022761;28;20452;-71
2022/04/12 07:00:17;;;;;;;18.53;12.13;;;8.70;71.70;;;;;;5019094;28;20448;-72
2022/04/12 07:02:46;;;;;;;18.57;12.60;;;8.70;71.70;;;;;;5025355;28;20898;-72
2022/04/12 07:05:16;;;;;;;20.90;12.90;;;8.80;71.70;;;;;;5020296;28;21023;-70
2022/04/12 07:07:44;;;;;;;19.23;12.50;;;8.80;71.60;;;;;;5019184;28;20443;-73
2022/04/12 07:10:14;;;;;;;21.93;14.40;;;8.90;71.60;;;;;;5023369;28;21133;-72
2022/04/12 07:12:43;;;;;;;16.70;11.03;;;8.90;71.60;;;;;;5016764;28;20456;-73
2022/04/12 07:15:15;;;;;;;17.30;11.40;;;9.00;71.40;;;;;;5025622;28;20802;-73
2022/04/12 07:17:43;;;;;;;21.53;11.80;;;9.10;71.30;;;;;;5026472;28;20547;-72
2022/04/12 07:20:12;;;;;;;19.03;11.87;;;9.10;71.40;;;;;;5024987;28;20451;-70
2022/04/12 07:22:41;;;;;;;17.37;10.47;;;9.20;71.20;;;;;;5017146;28;20479;-72
2022/04/12 07:25:10;;;;;;;18.63;11.43;;;9.30;71.20;;;;;;5024892;28;20479;-72
2022/04/12 07:27:38;;;;;;;18.10;11.53;;;9.30;71.00;;;;;;5019327;28;20459;-70
2022/04/12 07:30:08;;;;;;;19.80;11.87;;;9.40;70.80;;;;;;5022774;28;20464;-73
2022/04/12 07:32:36;;;;;;;19.10;10.80;;;9.40;70.80;;;;;;5017728;28;20783;-74
2022/04/12 07:35:05;;;;;;;18.83;11.57;;;9.50;70.80;;;;;;5023069;28;20453;-70
2022/04/12 07:37:35;;;;;;;18.60;12.27;;;9.60;70.70;;;;;;5026027;28;21008;-72
2022/04/12 07:40:06;;;;;;;14.50;10.00;;;9.70;70.60;;;;;;5025989;28;20460;-73
2022/04/12 07:42:34;;;;;;;13.27;9.30;;;9.70;70.50;;;;;;5018103;28;20452;-74
2022/04/12 07:45:02;;;;;;;16.27;9.57;;;9.80;70.40;;;;;;5024108;28;21290;-73
2022/04/12 07:47:30;;;;;;;14.37;9.60;;;9.90;70.30;;;;;;5018892;28;20477;-73
2022/04/12 07:49:58;;;;;;;17.93;11.10;;;10.00;70.20;;;;;;5029126;28;20898;-71
2022/04/12 07:52:26;;;;;;;15.53;9.37;;;10.00;70.10;;;;;;5024628;28;20456;-73
2022/04/12 07:54:54;;;;;;;13.80;9.30;;;10.10;70.00;;;;;;5024307;28;20444;-74
2022/04/12 07:57:23;;;;;;;13.50;8.03;;;10.20;70.10;;;;;;5013217;28;21237;-73
2022/04/12 07:59:51;;;;;;;15.27;9.77;;;10.30;69.90;;;;;;5020283;28;20459;-75
2022/04/12 08:02:19;;;;;;;15.80;9.20;;;10.40;69.80;;;;;;5020721;28;20505;-74
2022/04/12 08:04:47;;;;;;;15.33;9.30;;;10.50;69.70;;;;;;5020919;28;20514;-75
2022/04/12 08:07:15;;;;;;;13.23;9.27;;;10.60;69.20;;;;;;5020582;28;20448;-75
2022/04/12 08:09:42;;;;;;;13.03;9.43;;;10.60;69.50;;;;;;5015231;28;20470;-75
2022/04/12 08:12:11;;;;;;;16.27;10.77;;;10.70;69.30;;;;;;5016252;28;20468;-74
2022/04/12 08:14:40;;;;;;;19.37;10.73;;;10.80;69.10;;;;;;5017952;28;20461;-74
2022/04/12 08:17:08;;;;;;;15.77;10.77;;;10.90;69.00;;;;;;5019275;28;20482;-74
2022/04/12 08:19:36;;;;;;;15.80;10.33;;;11.00;68.90;;;;;;5021682;28;20452;-75
2022/04/12 08:22:04;;;;;;;32.87;17.13;;;11.00;68.80;;;;;;5026481;28;20476;-75
2022/04/12 08:24:39;;;;;;;20.53;12.87;;;11.10;68.70;;;;;;5020546;28;20456;-75
2022/04/12 08:27:07;;;;;;;14.57;9.77;;;11.20;68.60;;;;;;5022241;28;20438;-73
2022/04/12 08:29:35;;;;;;;13.40;8.40;;;11.30;68.50;;;;;;5014611;28;20461;-73
2022/04/12 08:32:05;;;;;;;15.10;8.57;;;11.30;68.30;;;;;;5017581;28;20495;-73
2022/04/12 08:34:33;;;;;;;18.43;8.60;;;11.40;68.20;;;;;;5013400;28;20507;-73
2022/04/12 08:37:02;;;;;;;13.87;8.53;;;11.40;68.10;;;;;;5020590;28;20449;-72
2022/04/12 08:39:30;;;;;;;13.07;8.13;;;11.50;68.10;;;;;;5017583;28;20562;-73
2022/04/12 08:42:01;;;;;;;20.13;8.90;;;11.60;68.00;;;;;;5015467;28;21069;-73
2022/04/12 08:44:30;;;;;;;11.17;7.00;;;11.70;67.90;;;;;;5014514;28;20463;-74
2022/04/12 08:46:59;;;;;;;14.73;8.30;;;11.70;67.60;;;;;;5022343;28;20609;-74
2022/04/12 08:49:29;;;;;;;15.13;8.13;;;11.80;67.10;;;;;;5020393;28;20526;-72
2022/04/12 08:51:57;;;;;;;13.47;8.00;;;11.90;67.30;;;;;;5023582;28;20480;-72
2022/04/12 08:54:26;;;;;;;14.43;8.10;;;12.00;67.20;;;;;;5019568;28;20472;-71
2022/04/12 08:56:54;;;;;;;13.43;8.93;;;12.10;67.20;;;;;;5017701;28;20449;-72
2022/04/12 08:59:23;;;;;;;13.10;7.97;;;12.20;67.00;;;;;;5023900;28;20474;-72
2022/04/12 09:01:51;;;;;;;13.87;7.60;;;12.20;67.00;;;;;;5023110;28;20514;-71
2022/04/12 09:04:20;;;;;;;12.23;6.83;;;12.30;66.80;;;;;;5019729;28;20448;-72
2022/04/12 09:06:50;;;;;;;12.13;8.63;;;12.40;66.60;;;;;;5020393;28;20475;-71
2022/04/12 09:09:21;;;;;;;16.33;10.20;;;12.50;66.30;;;;;;5023512;28;20567;-72
2022/04/12 09:11:57;;;;;;;17.20;9.87;;;12.50;65.90;;;;;;5021049;28;20471;-72
2022/04/12 09:14:26;;;;;;;12.53;7.00;;;12.60;66.10;;;;;;5024597;28;20495;-71
2022/04/12 09:16:53;;;;;;;17.53;8.37;;;12.70;65.80;;;;;;5019531;28;20503;-71
2022/04/12 09:19:43;;;;;;;12.47;7.97;;;12.80;65.80;;;;;;5012212;28;21210;-71
2022/04/12 09:22:14;;;;;;;13.00;8.30;;;12.90;65.60;;;;;;5010810;28;20468;-73
2022/04/12 09:24:47;;;;;;;11.57;6.30;;;12.90;65.40;;;;;;5016394;28;20474;-73
2022/04/12 09:27:16;;;;;;;22.77;10.50;;;13.00;65.20;;;;;;5019005;28;20480;-74
2022/04/12 09:29:46;;;;;;;25.60;13.07;;;13.10;65.30;;;;;;5014022;28;20475;-72
2022/04/12 09:32:15;;;;;;;14.87;9.30;;;13.20;65.10;;;;;;5017297;28;20471;-71
2022/04/12 09:34:44;;;;;;;15.10;8.07;;;13.30;64.60;;;;;;5019176;28;20531;-72
2022/04/12 09:37:24;;;;;;;22.13;8.40;;;13.30;64.70;;;;;;5015691;28;21004;-72
2022/04/12 09:40:04;;;;;;;12.80;7.23;;;13.40;64.30;;;;;;5038553;28;20502;-73
2022/04/12 09:42:41;;;;;;;30.27;10.83;;;13.50;64.10;;;;;;5024122;28;20454;-72
2022/04/12 09:45:11;;;;;;;13.90;8.70;;;13.50;64.40;;;;;;5020649;28;21327;-73
2022/04/12 09:47:40;;;;;;;12.30;7.57;;;13.60;64.30;;;;;;5017419;28;20502;-73
2022/04/12 09:50:30;;;;;;;16.93;7.80;;;13.70;64.30;;;;;;5016306;28;20518;-72
2022/04/12 09:53:00;;;;;;;13.40;7.30;;;13.70;64.10;;;;;;5015822;28;20484;-73
2022/04/12 09:55:36;;;;;;;11.33;6.80;;;13.90;64.10;;;;;;5017778;28;20857;-72
2022/04/12 09:58:13;;;;;;;11.87;8.10;;;13.90;63.50;;;;;;5013149;28;21005;-73
2022/04/12 10:00:42;;;;;;;11.17;6.80;;;14.00;63.00;;;;;;5011680;28;20535;-73
2022/04/12 10:03:13;;;;;;;12.93;7.50;;;14.10;62.90;;;;;;5013565;28;21152;-73
2022/04/12 10:05:41;;;;;;;11.87;7.47;;;14.20;63.00;;;;;;5015965;28;21028;-74
2022/04/12 10:08:12;;;;;;;13.90;7.30;;;14.20;62.70;;;;;;5018183;28;20486;-73
2022/04/12 10:10:42;;;;;;;13.97;7.87;;;14.30;62.70;;;;;;5018007;28;20534;-73
2022/04/12 10:13:11;;;;;;;10.47;7.13;;;14.30;62.40;;;;;;5012722;28;20451;-73
2022/04/12 10:15:39;;;;;;;11.27;6.90;;;14.40;62.40;;;;;;5021603;28;20505;-72
2022/04/12 10:18:07;;;;;;;11.10;6.70;;;14.50;62.40;;;;;;5024015;28;20456;-73
2022/04/12 10:20:35;;;;;;;13.90;7.33;;;14.60;62.20;;;;;;5022581;28;20557;-72
2022/04/12 10:23:06;;;;;;;14.43;7.17;;;14.70;62.20;;;;;;5023067;28;22192;-73
2022/04/12 10:25:36;;;;;;;10.20;7.07;;;14.70;61.90;;;;;;5019342;28;20470;-73
2022/04/12 10:28:05;;;;;;;13.47;7.80;;;14.80;62.00;;;;;;5022767;28;20530;-73
2022/04/12 10:30:33;;;;;;;11.57;7.10;;;14.90;61.90;;;;;;5023499;28;20464;-74
2022/04/12 10:33:03;;;;;;;11.00;7.20;;;14.90;61.80;;;;;;5020771;28;20949;-73
2022/04/12 10:35:46;;;;;;;10.70;6.50;;;15.00;61.70;;;;;;5019130;28;20463;-76
2022/04/12 10:38:16;;;;;;;12.20;6.47;;;15.10;61.60;;;;;;5022293;28;20459;-75
2022/04/12 10:40:49;;;;;;;14.27;10.23;;;15.20;61.30;;;;;;5019131;28;20483;-75
2022/04/12 10:43:23;;;;;;;15.47;9.57;;;15.20;61.10;;;;;;5022800;28;20502;-74
2022/04/12 10:45:52;;;;;;;11.37;6.87;;;15.30;61.20;;;;;;5016744;28;20467;-75
2022/04/12 10:48:23;;;;;;;13.67;7.87;;;15.40;61.00;;;;;;5022363;28;20472;-75
2022/04/12 10:50:53;;;;;;;9.63;6.80;;;15.40;60.60;;;;;;5023919;28;20495;-76
2022/04/12 10:53:55;;;;;;;9.47;6.80;;;15.50;60.60;;;;;;5023587;28;20449;-73
2022/04/12 10:56:26;;;;;;;10.07;6.70;;;15.50;60.50;;;;;;5020708;28;20458;-74
2022/04/12 10:58:54;;;;;;;13.77;7.47;;;15.60;60.60;;;;;;5020798;28;20447;-74
2022/04/12 11:01:31;;;;;;;12.83;7.03;;;15.60;60.60;;;;;;5020738;28;20838;-74
2022/04/12 11:04:01;;;;;;;14.00;7.60;;;15.70;60.40;;;;;;5019506;28;20547;-73
2022/04/12 11:06:30;;;;;;;14.53;8.50;;;15.70;60.30;;;;;;5021444;28;20589;-73
2022/04/12 11:09:09;;;;;;;16.80;9.27;;;15.70;60.30;;;;;;5019071;28;20445;-72
2022/04/12 11:11:41;;;;;;;27.53;16.10;;;15.80;60.30;;;;;;5017713;28;20494;-72
2022/04/12 11:14:22;;;;;;;12.93;6.90;;;15.80;60.50;;;;;;5016376;28;20448;-73
2022/04/12 11:16:52;;;;;;;10.30;7.10;;;15.90;60.30;;;;;;5014295;28;20471;-72
2022/04/12 11:19:25;;;;;;;11.87;7.00;;;16.00;60.40;;;;;;5016201;28;20448;-71
2022/04/12 11:22:01;;;;;;;9.33;7.00;;;16.00;60.20;;;;;;5016596;28;20472;-72
2022/04/12 11:24:29;;;;;;;12.37;8.43;;;16.10;60.20;;;;;;5016657;28;20448;-72
2022/04/12 11:27:08;;;;;;;14.23;8.10;;;16.20;60.00;;;;;;5022561;28;21147;-72
2022/04/12 11:29:38;;;;;;;12.07;8.57;;;16.20;59.90;;;;;;5013927;28;20894;-73
2022/04/12 11:32:08;;;;;;;12.60;8.17;;;16.20;60.10;;;;;;5026716;28;21023;-72
2022/04/12 11:34:38;;;;;;;15.70;7.70;;;16.20;60.10;;;;;;5026855;28;20459;-73
2022/04/12 11:37:08;;;;;;;12.70;7.70;;;16.30;60.00;;;;;;5027321;28;20527;-72
2022/04/12 11:39:38;;;;;;;13.13;7.53;;;16.30;59.90;;;;;;5018176;28;21166;-72
2022/04/12 11:42:09;;;;;;;15.10;7.90;;;16.30;59.90;;;;;;5023477;28;20472;-73
2022/04/12 11:44:37;;;;;;;11.00;7.67;;;16.30;59.90;;;;;;5021731;28;20456;-74
2022/04/12 11:47:06;;;;;;;11.10;7.43;;;16.40;59.90;;;;;;5022363;28;20496;-73
2022/04/12 11:49:37;;;;;;;14.30;8.10;;;16.50;59.70;;;;;;5014109;28;20437;-73
2022/04/12 11:52:07;;;;;;;14.30;8.60;;;16.60;59.70;;;;;;5011155;28;20480;-73
2022/04/12 11:54:37;;;;;;;13.20;8.80;;;16.60;59.40;;;;;;5016901;28;20460;-74
2022/04/12 11:57:08;;;;;;;11.40;7.07;;;16.70;59.60;;;;;;5020462;28;20524;-74
2022/04/12 11:59:38;;;;;;;16.57;8.50;;;16.70;59.40;;;;;;5034378;28;20738;-74
2022/04/12 12:02:07;;;;;;;13.63;9.37;;;16.80;59.30;;;;;;5025782;28;20487;-73
2022/04/12 12:04:36;;;;;;;13.27;9.53;;;16.80;59.20;;;;;;5024687;28;20542;-74
2022/04/12 12:07:06;;;;;;;12.80;8.90;;;16.90;59.00;;;;;;5027164;28;20507;-73
2022/04/12 12:09:52;;;;;;;13.63;9.70;;;16.90;58.80;;;;;;5014240;28;20468;-74
2022/04/12 12:12:31;;;;;;;15.00;8.53;;;17.00;59.00;;;;;;5022032;28;20590;-72
2022/04/12 12:14:59;;;;;;;13.30;8.60;;;17.10;58.80;;;;;;5022177;28;20458;-73
2022/04/12 12:17:28;;;;;;;12.10;7.80;;;17.20;58.80;;;;;;5016650;28;21010;-72
2022/04/12 12:19:56;;;;;;;13.67;9.00;;;17.30;58.80;;;;;;5018788;28;20518;-73
2022/04/12 12:22:25;;;;;;;13.40;9.27;;;17.30;58.60;;;;;;5019940;28;20476;-73
2022/04/12 12:24:57;;;;;;;12.83;8.37;;;17.30;58.60;;;;;;5035413;28;20457;-73
2022/04/12 12:27:32;;;;;;;12.47;8.47;;;17.40;58.30;;;;;;5015906;28;20468;-72
2022/04/12 12:30:02;;;;;;;11.97;8.53;;;17.40;58.10;;;;;;5014525;28;20517;-72
2022/04/12 12:32:34;;;;;;;12.60;9.00;;;17.50;58.00;;;;;;5016487;28;20477;-73
2022/04/12 12:35:03;;;;;;;9.50;6.70;;;17.60;58.00;;;;;;5023686;28;20479;-73
2022/04/12 12:37:31;;;;;;;11.20;7.60;;;17.60;57.90;;;;;;5018786;28;20455;-72
2022/04/12 12:39:59;;;;;;;12.40;8.23;;;17.70;57.50;;;;;;5018039;28;20506;-72
2022/04/12 12:42:37;;;;;;;12.13;8.57;;;17.70;57.30;;;;;;5013763;28;20490;-72
2022/04/12 12:45:12;;;;;;;15.10;9.07;;;17.70;57.40;;;;;;5016797;28;20538;-72
2022/04/12 12:47:42;;;;;;;11.90;8.40;;;17.70;57.60;;;;;;5020058;28;20885;-72
2022/04/12 12:50:12;;;;;;;11.73;8.27;;;17.80;57.50;;;;;;5017000;28;21185;-73
2022/04/12 12:52:40;;;;;;;13.47;8.50;;;17.80;57.20;;;;;;5013823;28;20970;-72